sensor_id;sensor_type;location;lat;lon;timestamp;temperature;humidity
17423;DHT22;8829;47.932;7.810;2023-04-15T00:01:23;5.70;99.90
17423;DHT22;8829;47.932;7.810;2023-04-15T00:03:50;5.70;99.90
17423;DHT22;8829;47.932;7.810;2023-04-15T00:06:19;5.80;99.90
17423;DHT22;8829;47.932;7.810;2023-04-15T00:08:47;5.70;99.90
17423;DHT22;8829;47.932;7.810;2023-04-15T00:11:15;5.70;99.90
17423;DHT22;8829;47.932;7.810;2023-04-15T00:13:42;5.90;99.90
17423;DHT22;8829;47.932;7.810;2023-04-15T00:16:10;6.00;99.90
17423;DHT22;8829;47.932;7.810;2023-04-15T00:18:36;6.00;99.90
17423;DHT22;8829;47.932;7.810;2023-04-15T00:21:04;6.00;99.90
17423;DHT22;8829;47.932;7.810;2023-04-15T00:23:32;6.10;99.90
17423;DHT22;8829;47.932;7.810;2023-04-15T00:25:59;6.10;99.90
17423;DHT22;8829;47.932;7.810;2023-04-15T00:28:26;6.10;99.90
17423;DHT22;8829;47.932;7.810;2023-04-15T00:30:52;6.20;99.90
17423;DHT22;8829;47.932;7.810;2023-04-15T00:33:19;6.30;99.90
17423;DHT22;8829;47.932;7.810;2023-04-15T00:35:45;6.40;99.90
17423;DHT22;8829;47.932;7.810;2023-04-15T00:38:12;6.50;99.90
17423;DHT22;8829;47.932;7.810;2023-04-15T00:40:41;6.50;99.90
17423;DHT22;8829;47.932;7.810;2023-04-15T00:43:08;6.60;99.90
17423;DHT22;8829;47.932;7.810;2023-04-15T00:45:35;6.60;99.90
17423;DHT22;8829;47.932;7.810;2023-04-15T00:48:02;6.60;99.90
17423;DHT22;8829;47.932;7.810;2023-04-15T00:50:28;6.70;99.90
17423;DHT22;8829;47.932;7.810;2023-04-15T00:52:55;6.70;99.90
17423;DHT22;8829;47.932;7.810;2023-04-15T00:55:22;6.80;99.90
17423;DHT22;8829;47.932;7.810;2023-04-15T00:57:51;6.80;99.90
17423;DHT22;8829;47.932;7.810;2023-04-15T01:00:18;6.90;99.90
17423;DHT22;8829;47.932;7.810;2023-04-15T01:02:45;6.90;99.90
17423;DHT22;8829;47.932;7.810;2023-04-15T01:05:12;6.90;99.90
17423;DHT22;8829;47.932;7.810;2023-04-15T01:07:41;6.70;99.90
17423;DHT22;8829;47.932;7.810;2023-04-15T01:10:08;6.90;99.90
17423;DHT22;8829;47.932;7.810;2023-04-15T01:12:35;7.00;99.90
17423;DHT22;8829;47.932;7.810;2023-04-15T01:15:06;7.10;99.90
17423;DHT22;8829;47.932;7.810;2023-04-15T01:17:34;7.10;99.90
17423;DHT22;8829;47.932;7.810;2023-04-15T01:20:01;7.20;99.90
17423;DHT22;8829;47.932;7.810;2023-04-15T01:22:29;7.20;99.90
17423;DHT22;8829;47.932;7.810;2023-04-15T01:25:02;7.20;99.90
17423;DHT22;8829;47.932;7.810;2023-04-15T01:27:32;7.20;99.90
17423;DHT22;8829;47.932;7.810;2023-04-15T01:30:00;7.20;99.90
17423;DHT22;8829;47.932;7.810;2023-04-15T01:32:27;7.20;99.90
17423;DHT22;8829;47.932;7.810;2023-04-15T01:34:55;7.20;99.90
17423;DHT22;8829;47.932;7.810;2023-04-15T01:37:22;7.20;99.90
17423;DHT22;8829;47.932;7.810;2023-04-15T01:39:49;7.20;99.90
17423;DHT22;8829;47.932;7.810;2023-04-15T01:42:16;7.30;99.90
17423;DHT22;8829;47.932;7.810;2023-04-15T01:44:44;7.40;99.90
17423;DHT22;8829;47.932;7.810;2023-04-15T01:47:10;7.40;99.90
17423;DHT22;8829;47.932;7.810;2023-04-15T01:49:37;7.50;99.90
17423;DHT22;8829;47.932;7.810;2023-04-15T01:52:04;7.50;99.90
17423;DHT22;8829;47.932;7.810;2023-04-15T01:54:31;7.50;99.90
17423;DHT22;8829;47.932;7.810;2023-04-15T01:56:58;7.50;99.90
17423;DHT22;8829;47.932;7.810;2023-04-15T01:59:24;7.50;99.90
17423;DHT22;8829;47.932;7.810;2023-04-15T02:01:53;7.50;99.90
17423;DHT22;8829;47.932;7.810;2023-04-15T02:04:20;7.40;99.90
17423;DHT22;8829;47.932;7.810;2023-04-15T02:06:47;7.40;99.90
17423;DHT22;8829;47.932;7.810;2023-04-15T02:09:14;7.40;99.90
17423;DHT22;8829;47.932;7.810;2023-04-15T02:11:40;7.40;99.90
17423;DHT22;8829;47.932;7.810;2023-04-15T02:14:07;7.60;99.90
17423;DHT22;8829;47.932;7.810;2023-04-15T02:16:34;7.70;99.90
17423;DHT22;8829;47.932;7.810;2023-04-15T02:19:02;7.70;99.90
17423;DHT22;8829;47.932;7.810;2023-04-15T02:21:29;7.70;99.90
17423;DHT22;8829;47.932;7.810;2023-04-15T02:23:56;7.70;99.90
17423;DHT22;8829;47.932;7.810;2023-04-15T02:26:22;7.70;99.90
17423;DHT22;8829;47.932;7.810;2023-04-15T02:28:50;7.80;99.90
17423;DHT22;8829;47.932;7.810;2023-04-15T02:31:17;7.80;99.90
17423;DHT22;8829;47.932;7.810;2023-04-15T02:33:44;7.80;99.90
17423;DHT22;8829;47.932;7.810;2023-04-15T02:36:12;7.80;99.90
17423;DHT22;8829;47.932;7.810;2023-04-15T02:38:39;7.80;99.90
17423;DHT22;8829;47.932;7.810;2023-04-15T02:41:08;7.80;99.90
17423;DHT22;8829;47.932;7.810;2023-04-15T02:43:34;7.80;99.90
17423;DHT22;8829;47.932;7.810;2023-04-15T02:46:01;7.80;99.90
17423;DHT22;8829;47.932;7.810;2023-04-15T02:48:28;7.90;99.90
17423;DHT22;8829;47.932;7.810;2023-04-15T02:51:11;7.90;99.90
17423;DHT22;8829;47.932;7.810;2023-04-15T02:53:38;7.80;99.90
17423;DHT22;8829;47.932;7.810;2023-04-15T02:56:06;7.80;99.90
17423;DHT22;8829;47.932;7.810;2023-04-15T02:58:33;7.80;99.90
17423;DHT22;8829;47.932;7.810;2023-04-15T03:01:00;7.80;99.90
17423;DHT22;8829;47.932;7.810;2023-04-15T03:03:27;7.80;99.90
17423;DHT22;8829;47.932;7.810;2023-04-15T03:05:53;7.90;99.90
17423;DHT22;8829;47.932;7.810;2023-04-15T03:08:22;7.90;99.90
17423;DHT22;8829;47.932;7.810;2023-04-15T03:10:48;7.90;99.90
17423;DHT22;8829;47.932;7.810;2023-04-15T03:13:16;7.90;99.90
17423;DHT22;8829;47.932;7.810;2023-04-15T03:15:45;7.80;99.90
17423;DHT22;8829;47.932;7.810;2023-04-15T03:18:11;7.80;99.90
17423;DHT22;8829;47.932;7.810;2023-04-15T03:20:38;7.90;99.90
17423;DHT22;8829;47.932;7.810;2023-04-15T03:23:05;7.80;99.90
17423;DHT22;8829;47.932;7.810;2023-04-15T03:25:33;7.90;99.90
17423;DHT22;8829;47.932;7.810;2023-04-15T03:28:01;7.90;99.90
17423;DHT22;8829;47.932;7.810;2023-04-15T03:30:28;7.80;99.90
17423;DHT22;8829;47.932;7.810;2023-04-15T03:32:55;7.90;99.90
17423;DHT22;8829;47.932;7.810;2023-04-15T03:35:22;7.80;99.90
17423;DHT22;8829;47.932;7.810;2023-04-15T03:37:48;7.80;99.90
17423;DHT22;8829;47.932;7.810;2023-04-15T03:40:15;7.80;99.90
17423;DHT22;8829;47.932;7.810;2023-04-15T03:42:43;7.80;99.90
17423;DHT22;8829;47.932;7.810;2023-04-15T03:45:10;7.80;99.90
17423;DHT22;8829;47.932;7.810;2023-04-15T03:47:37;7.90;99.90
17423;DHT22;8829;47.932;7.810;2023-04-15T03:50:05;7.90;99.90
17423;DHT22;8829;47.932;7.810;2023-04-15T03:52:31;7.80;99.90
17423;DHT22;8829;47.932;7.810;2023-04-15T03:54:58;7.80;99.90
17423;DHT22;8829;47.932;7.810;2023-04-15T03:57:25;7.90;99.90
17423;DHT22;8829;47.932;7.810;2023-04-15T03:59:53;7.90;99.90
17423;DHT22;8829;47.932;7.810;2023-04-15T04:02:19;7.90;99.90
17423;DHT22;8829;47.932;7.810;2023-04-15T04:04:47;8.00;99.90
17423;DHT22;8829;47.932;7.810;2023-04-15T04:07:15;8.00;99.90
17423;DHT22;8829;47.932;7.810;2023-04-15T04:09:41;7.90;99.90
17423;DHT22;8829;47.932;7.810;2023-04-15T04:12:08;7.90;99.90
17423;DHT22;8829;47.932;7.810;2023-04-15T04:14:35;7.80;99.90
17423;DHT22;8829;47.932;7.810;2023-04-15T04:17:03;7.70;99.90
17423;DHT22;8829;47.932;7.810;2023-04-15T04:19:30;7.70;99.90
17423;DHT22;8829;47.932;7.810;2023-04-15T04:21:57;7.70;99.90
17423;DHT22;8829;47.932;7.810;2023-04-15T04:24:23;7.70;99.90
17423;DHT22;8829;47.932;7.810;2023-04-15T04:26:50;7.70;99.90
17423;DHT22;8829;47.932;7.810;2023-04-15T04:29:17;7.70;99.90
17423;DHT22;8829;47.932;7.810;2023-04-15T04:31:44;7.70;99.90
17423;DHT22;8829;47.932;7.810;2023-04-15T04:34:14;7.70;99.90
17423;DHT22;8829;47.932;7.810;2023-04-15T04:36:41;7.80;99.90
17423;DHT22;8829;47.932;7.810;2023-04-15T04:39:07;7.80;99.90
17423;DHT22;8829;47.932;7.810;2023-04-15T04:41:34;7.80;99.90
17423;DHT22;8829;47.932;7.810;2023-04-15T04:44:00;7.80;99.90
17423;DHT22;8829;47.932;7.810;2023-04-15T04:46:28;7.80;99.90
17423;DHT22;8829;47.932;7.810;2023-04-15T04:48:54;7.80;99.90
17423;DHT22;8829;47.932;7.810;2023-04-15T04:51:22;7.80;99.90
17423;DHT22;8829;47.932;7.810;2023-04-15T04:53:49;7.70;99.90
17423;DHT22;8829;47.932;7.810;2023-04-15T04:56:16;7.70;99.90
17423;DHT22;8829;47.932;7.810;2023-04-15T04:58:42;7.70;99.90
17423;DHT22;8829;47.932;7.810;2023-04-15T05:01:09;7.80;99.90
17423;DHT22;8829;47.932;7.810;2023-04-15T05:03:36;7.70;99.90
17423;DHT22;8829;47.932;7.810;2023-04-15T05:06:03;7.70;99.90
17423;DHT22;8829;47.932;7.810;2023-04-15T05:08:33;7.60;99.90
17423;DHT22;8829;47.932;7.810;2023-04-15T05:11:00;7.60;99.90
17423;DHT22;8829;47.932;7.810;2023-04-15T05:13:27;7.60;99.90
17423;DHT22;8829;47.932;7.810;2023-04-15T05:15:54;7.60;99.90
17423;DHT22;8829;47.932;7.810;2023-04-15T05:18:21;7.70;99.90
17423;DHT22;8829;47.932;7.810;2023-04-15T05:20:47;7.70;99.90
17423;DHT22;8829;47.932;7.810;2023-04-15T05:23:14;7.80;99.90
17423;DHT22;8829;47.932;7.810;2023-04-15T05:25:43;7.80;99.90
17423;DHT22;8829;47.932;7.810;2023-04-15T05:28:10;7.90;99.90
17423;DHT22;8829;47.932;7.810;2023-04-15T05:30:37;7.90;99.90
17423;DHT22;8829;47.932;7.810;2023-04-15T05:33:04;8.00;99.90
17423;DHT22;8829;47.932;7.810;2023-04-15T05:35:31;8.20;99.90
17423;DHT22;8829;47.932;7.810;2023-04-15T05:37:57;8.20;99.90
17423;DHT22;8829;47.932;7.810;2023-04-15T05:40:25;8.30;99.90
17423;DHT22;8829;47.932;7.810;2023-04-15T05:42:53;8.50;99.90
17423;DHT22;8829;47.932;7.810;2023-04-15T05:45:19;8.60;99.90
17423;DHT22;8829;47.932;7.810;2023-04-15T05:47:46;8.70;99.90
17423;DHT22;8829;47.932;7.810;2023-04-15T05:50:14;8.70;99.90
17423;DHT22;8829;47.932;7.810;2023-04-15T05:52:41;8.90;99.90
17423;DHT22;8829;47.932;7.810;2023-04-15T05:55:08;9.00;99.90
17423;DHT22;8829;47.932;7.810;2023-04-15T05:57:35;9.00;99.90
17423;DHT22;8829;47.932;7.810;2023-04-15T06:00:04;9.20;99.90
17423;DHT22;8829;47.932;7.810;2023-04-15T06:02:31;9.40;99.90
17423;DHT22;8829;47.932;7.810;2023-04-15T06:04:58;9.50;99.90
17423;DHT22;8829;47.932;7.810;2023-04-15T06:07:25;9.50;99.90
17423;DHT22;8829;47.932;7.810;2023-04-15T06:09:51;9.70;99.90
17423;DHT22;8829;47.932;7.810;2023-04-15T06:12:18;10.00;99.90
17423;DHT22;8829;47.932;7.810;2023-04-15T06:14:45;10.20;99.90
17423;DHT22;8829;47.932;7.810;2023-04-15T06:17:13;10.40;99.90
17423;DHT22;8829;47.932;7.810;2023-04-15T06:19:42;10.60;99.90
17423;DHT22;8829;47.932;7.810;2023-04-15T06:22:09;10.70;99.90
17423;DHT22;8829;47.932;7.810;2023-04-15T06:24:36;10.80;99.90
17423;DHT22;8829;47.932;7.810;2023-04-15T06:27:02;10.90;99.90
17423;DHT22;8829;47.932;7.810;2023-04-15T06:29:29;10.90;99.90
17423;DHT22;8829;47.932;7.810;2023-04-15T06:31:56;10.80;99.90
17423;DHT22;8829;47.932;7.810;2023-04-15T06:34:24;10.90;99.90
17423;DHT22;8829;47.932;7.810;2023-04-15T06:36:50;10.60;99.90
17423;DHT22;8829;47.932;7.810;2023-04-15T06:39:19;10.60;99.90
17423;DHT22;8829;47.932;7.810;2023-04-15T06:41:45;10.70;99.90
17423;DHT22;8829;47.932;7.810;2023-04-15T06:44:12;10.80;99.90
17423;DHT22;8829;47.932;7.810;2023-04-15T06:46:39;10.70;99.90
17423;DHT22;8829;47.932;7.810;2023-04-15T06:49:06;10.70;99.90
17423;DHT22;8829;47.932;7.810;2023-04-15T06:51:34;10.70;99.90
17423;DHT22;8829;47.932;7.810;2023-04-15T06:54:01;10.90;99.90
17423;DHT22;8829;47.932;7.810;2023-04-15T06:56:30;11.10;99.90
17423;DHT22;8829;47.932;7.810;2023-04-15T06:58:57;11.10;99.90
17423;DHT22;8829;47.932;7.810;2023-04-15T07:01:23;11.10;99.90
17423;DHT22;8829;47.932;7.810;2023-04-15T07:03:50;11.00;99.90
17423;DHT22;8829;47.932;7.810;2023-04-15T07:06:17;11.10;99.90
17423;DHT22;8829;47.932;7.810;2023-04-15T07:08:45;10.90;99.90
17423;DHT22;8829;47.932;7.810;2023-04-15T07:11:12;11.00;99.90
17423;DHT22;8829;47.932;7.810;2023-04-15T07:13:39;11.00;99.90
17423;DHT22;8829;47.932;7.810;2023-04-15T07:16:06;11.10;99.90
17423;DHT22;8829;47.932;7.810;2023-04-15T07:18:33;11.00;99.90
17423;DHT22;8829;47.932;7.810;2023-04-15T07:21:00;11.10;99.90
17423;DHT22;8829;47.932;7.810;2023-04-15T07:23:27;11.10;99.90
17423;DHT22;8829;47.932;7.810;2023-04-15T07:25:55;11.00;99.90
17423;DHT22;8829;47.932;7.810;2023-04-15T07:28:22;11.00;99.90
17423;DHT22;8829;47.932;7.810;2023-04-15T07:30:48;11.00;99.90
17423;DHT22;8829;47.932;7.810;2023-04-15T07:33:15;11.00;99.90
17423;DHT22;8829;47.932;7.810;2023-04-15T07:35:42;10.90;99.90
17423;DHT22;8829;47.932;7.810;2023-04-15T07:38:09;10.90;99.90
17423;DHT22;8829;47.932;7.810;2023-04-15T07:40:37;10.90;99.90
17423;DHT22;8829;47.932;7.810;2023-04-15T07:43:06;10.90;99.90
17423;DHT22;8829;47.932;7.810;2023-04-15T07:45:33;11.00;99.90
17423;DHT22;8829;47.932;7.810;2023-04-15T07:48:00;11.10;99.90
17423;DHT22;8829;47.932;7.810;2023-04-15T07:50:27;11.30;99.90
17423;DHT22;8829;47.932;7.810;2023-04-15T07:52:54;11.30;99.90
17423;DHT22;8829;47.932;7.810;2023-04-15T07:55:22;11.60;99.90
17423;DHT22;8829;47.932;7.810;2023-04-15T07:57:49;11.60;99.90
17423;DHT22;8829;47.932;7.810;2023-04-15T08:00:17;11.70;99.90
17423;DHT22;8829;47.932;7.810;2023-04-15T08:02:44;11.70;99.90
17423;DHT22;8829;47.932;7.810;2023-04-15T08:05:12;12.00;99.90
17423;DHT22;8829;47.932;7.810;2023-04-15T08:07:39;12.20;99.90
17423;DHT22;8829;47.932;7.810;2023-04-15T08:10:07;12.10;99.90
17423;DHT22;8829;47.932;7.810;2023-04-15T08:12:33;12.20;99.90
17423;DHT22;8829;47.932;7.810;2023-04-15T08:15:00;12.20;99.90
17423;DHT22;8829;47.932;7.810;2023-04-15T08:17:28;12.00;99.90
17423;DHT22;8829;47.932;7.810;2023-04-15T08:19:55;12.10;99.90
17423;DHT22;8829;47.932;7.810;2023-04-15T08:22:22;12.00;99.90
17423;DHT22;8829;47.932;7.810;2023-04-15T08:24:49;11.60;99.90
17423;DHT22;8829;47.932;7.810;2023-04-15T08:27:16;11.40;99.90
17423;DHT22;8829;47.932;7.810;2023-04-15T08:29:43;11.30;99.90
17423;DHT22;8829;47.932;7.810;2023-04-15T08:32:10;10.70;99.90
17423;DHT22;8829;47.932;7.810;2023-04-15T08:34:38;10.40;99.90
17423;DHT22;8829;47.932;7.810;2023-04-15T08:37:05;10.40;99.90
17423;DHT22;8829;47.932;7.810;2023-04-15T08:39:32;10.50;99.90
17423;DHT22;8829;47.932;7.810;2023-04-15T08:42:00;10.70;99.90
17423;DHT22;8829;47.932;7.810;2023-04-15T08:44:29;10.90;99.90
17423;DHT22;8829;47.932;7.810;2023-04-15T08:46:59;11.10;99.90
17423;DHT22;8829;47.932;7.810;2023-04-15T08:49:26;11.30;99.90
17423;DHT22;8829;47.932;7.810;2023-04-15T08:51:57;11.40;99.90
17423;DHT22;8829;47.932;7.810;2023-04-15T08:54:25;11.00;99.90
17423;DHT22;8829;47.932;7.810;2023-04-15T08:56:52;10.50;99.90
17423;DHT22;8829;47.932;7.810;2023-04-15T08:59:20;10.10;99.90
17423;DHT22;8829;47.932;7.810;2023-04-15T09:01:47;10.10;99.90
17423;DHT22;8829;47.932;7.810;2023-04-15T09:04:15;10.10;99.90
17423;DHT22;8829;47.932;7.810;2023-04-15T09:06:42;10.30;99.90
17423;DHT22;8829;47.932;7.810;2023-04-15T09:09:11;10.50;99.90
17423;DHT22;8829;47.932;7.810;2023-04-15T09:11:38;10.80;99.90
17423;DHT22;8829;47.932;7.810;2023-04-15T09:14:05;11.10;99.90
17423;DHT22;8829;47.932;7.810;2023-04-15T09:16:55;11.30;99.90
17423;DHT22;8829;47.932;7.810;2023-04-15T09:19:22;11.60;99.90
17423;DHT22;8829;47.932;7.810;2023-04-15T09:21:49;11.90;99.90
17423;DHT22;8829;47.932;7.810;2023-04-15T09:24:18;12.10;99.90
17423;DHT22;8829;47.932;7.810;2023-04-15T09:26:44;12.30;99.90
17423;DHT22;8829;47.932;7.810;2023-04-15T09:29:11;12.40;99.90
17423;DHT22;8829;47.932;7.810;2023-04-15T09:31:39;12.50;99.90
17423;DHT22;8829;47.932;7.810;2023-04-15T09:34:07;12.50;99.90
17423;DHT22;8829;47.932;7.810;2023-04-15T09:36:50;12.60;99.90
17423;DHT22;8829;47.932;7.810;2023-04-15T09:39:19;12.80;99.90
17423;DHT22;8829;47.932;7.810;2023-04-15T09:41:46;12.80;99.90
17423;DHT22;8829;47.932;7.810;2023-04-15T09:44:21;12.70;99.90
17423;DHT22;8829;47.932;7.810;2023-04-15T09:46:48;12.80;99.90
17423;DHT22;8829;47.932;7.810;2023-04-15T09:49:15;12.90;99.90
17423;DHT22;8829;47.932;7.810;2023-04-15T09:51:42;13.00;99.90
17423;DHT22;8829;47.932;7.810;2023-04-15T09:54:09;13.00;99.90
17423;DHT22;8829;47.932;7.810;2023-04-15T09:56:38;13.10;99.90
17423;DHT22;8829;47.932;7.810;2023-04-15T09:59:06;13.10;99.90
17423;DHT22;8829;47.932;7.810;2023-04-15T10:01:34;13.20;99.90
17423;DHT22;8829;47.932;7.810;2023-04-15T10:04:02;13.30;99.90
17423;DHT22;8829;47.932;7.810;2023-04-15T10:06:30;13.30;99.90
17423;DHT22;8829;47.932;7.810;2023-04-15T10:08:57;13.30;99.90
17423;DHT22;8829;47.932;7.810;2023-04-15T10:11:27;13.30;99.90
17423;DHT22;8829;47.932;7.810;2023-04-15T10:13:56;13.60;99.90
17423;DHT22;8829;47.932;7.810;2023-04-15T10:16:26;13.70;99.90
17423;DHT22;8829;47.932;7.810;2023-04-15T10:18:54;13.70;99.90
17423;DHT22;8829;47.932;7.810;2023-04-15T10:21:22;13.70;99.90
17423;DHT22;8829;47.932;7.810;2023-04-15T10:23:49;13.60;99.90
17423;DHT22;8829;47.932;7.810;2023-04-15T10:26:16;13.70;99.90
17423;DHT22;8829;47.932;7.810;2023-04-15T10:28:43;13.40;99.90
17423;DHT22;8829;47.932;7.810;2023-04-15T10:31:13;13.20;99.90
17423;DHT22;8829;47.932;7.810;2023-04-15T10:33:41;13.30;99.90
17423;DHT22;8829;47.932;7.810;2023-04-15T10:36:08;13.40;99.90
17423;DHT22;8829;47.932;7.810;2023-04-15T10:38:39;13.70;99.90
17423;DHT22;8829;47.932;7.810;2023-04-15T10:41:17;13.90;99.90
17423;DHT22;8829;47.932;7.810;2023-04-15T10:43:49;14.00;99.90
17423;DHT22;8829;47.932;7.810;2023-04-15T10:46:21;13.80;99.90
17423;DHT22;8829;47.932;7.810;2023-04-15T10:48:52;14.00;99.90
17423;DHT22;8829;47.932;7.810;2023-04-15T10:51:37;14.00;99.90
17423;DHT22;8829;47.932;7.810;2023-04-15T10:54:12;14.10;99.90
17423;DHT22;8829;47.932;7.810;2023-04-15T10:56:41;14.10;99.90
17423;DHT22;8829;47.932;7.810;2023-04-15T10:59:08;13.90;99.90
17423;DHT22;8829;47.932;7.810;2023-04-15T11:01:56;13.80;99.90
17423;DHT22;8829;47.932;7.810;2023-04-15T11:04:52;13.40;99.90
17423;DHT22;8829;47.932;7.810;2023-04-15T11:07:34;13.40;99.90
17423;DHT22;8829;47.932;7.810;2023-04-15T11:10:02;13.40;99.90
17423;DHT22;8829;47.932;7.810;2023-04-15T11:12:35;13.50;99.90
17423;DHT22;8829;47.932;7.810;2023-04-15T11:15:26;13.80;99.90
17423;DHT22;8829;47.932;7.810;2023-04-15T11:17:56;14.00;99.90
17423;DHT22;8829;47.932;7.810;2023-04-15T11:20:23;14.20;99.90
17423;DHT22;8829;47.932;7.810;2023-04-15T11:22:51;14.20;99.90
17423;DHT22;8829;47.932;7.810;2023-04-15T11:25:22;14.10;99.90
17423;DHT22;8829;47.932;7.810;2023-04-15T11:27:49;14.20;99.90
17423;DHT22;8829;47.932;7.810;2023-04-15T11:30:18;14.20;99.90
17423;DHT22;8829;47.932;7.810;2023-04-15T11:32:46;14.20;99.90
17423;DHT22;8829;47.932;7.810;2023-04-15T11:37:42;14.00;99.90
17423;DHT22;8829;47.932;7.810;2023-04-15T11:40:09;13.90;99.90
17423;DHT22;8829;47.932;7.810;2023-04-15T11:42:36;13.80;99.90
17423;DHT22;8829;47.932;7.810;2023-04-15T11:45:06;13.80;99.90
17423;DHT22;8829;47.932;7.810;2023-04-15T11:47:34;13.80;99.90
17423;DHT22;8829;47.932;7.810;2023-04-15T11:50:17;13.70;99.90
17423;DHT22;8829;47.932;7.810;2023-04-15T11:52:54;13.70;99.90
17423;DHT22;8829;47.932;7.810;2023-04-15T11:55:22;13.60;99.90
17423;DHT22;8829;47.932;7.810;2023-04-15T11:57:49;13.50;99.90
17423;DHT22;8829;47.932;7.810;2023-04-15T12:00:16;13.60;99.90
17423;DHT22;8829;47.932;7.810;2023-04-15T12:02:43;13.80;99.90
17423;DHT22;8829;47.932;7.810;2023-04-15T12:05:09;13.90;99.90
17423;DHT22;8829;47.932;7.810;2023-04-15T12:07:59;14.10;99.90
17423;DHT22;8829;47.932;7.810;2023-04-15T12:10:25;14.20;99.90
17423;DHT22;8829;47.932;7.810;2023-04-15T12:12:52;14.30;99.90
17423;DHT22;8829;47.932;7.810;2023-04-15T12:15:21;14.20;99.90
17423;DHT22;8829;47.932;7.810;2023-04-15T12:17:48;14.20;99.90
17423;DHT22;8829;47.932;7.810;2023-04-15T12:20:23;14.20;99.90
17423;DHT22;8829;47.932;7.810;2023-04-15T12:22:50;14.10;99.90
17423;DHT22;8829;47.932;7.810;2023-04-15T12:25:19;13.90;99.90
17423;DHT22;8829;47.932;7.810;2023-04-15T12:27:58;13.90;99.90
17423;DHT22;8829;47.932;7.810;2023-04-15T12:30:24;13.90;99.90
17423;DHT22;8829;47.932;7.810;2023-04-15T12:32:51;13.90;99.90
17423;DHT22;8829;47.932;7.810;2023-04-15T12:35:18;13.70;99.90
17423;DHT22;8829;47.932;7.810;2023-04-15T12:37:46;13.70;99.90
17423;DHT22;8829;47.932;7.810;2023-04-15T12:40:12;13.90;99.90
17423;DHT22;8829;47.932;7.810;2023-04-15T12:42:40;14.00;99.90
17423;DHT22;8829;47.932;7.810;2023-04-15T12:45:07;14.00;99.90
17423;DHT22;8829;47.932;7.810;2023-04-15T12:47:34;14.10;99.90
17423;DHT22;8829;47.932;7.810;2023-04-15T12:50:01;14.20;99.90
17423;DHT22;8829;47.932;7.810;2023-04-15T12:52:28;14.30;99.90
17423;DHT22;8829;47.932;7.810;2023-04-15T12:54:54;14.20;99.90
17423;DHT22;8829;47.932;7.810;2023-04-15T12:57:21;14.20;99.90
17423;DHT22;8829;47.932;7.810;2023-04-15T12:59:49;14.10;99.90
17423;DHT22;8829;47.932;7.810;2023-04-15T13:02:16;14.00;99.90
17423;DHT22;8829;47.932;7.810;2023-04-15T13:04:43;13.90;99.90
17423;DHT22;8829;47.932;7.810;2023-04-15T13:07:09;14.00;99.90
17423;DHT22;8829;47.932;7.810;2023-04-15T13:09:38;14.10;99.90
17423;DHT22;8829;47.932;7.810;2023-04-15T13:12:04;14.30;99.90
17423;DHT22;8829;47.932;7.810;2023-04-15T13:14:31;14.30;99.90
17423;DHT22;8829;47.932;7.810;2023-04-15T13:16:59;14.30;99.90
17423;DHT22;8829;47.932;7.810;2023-04-15T13:19:27;14.40;99.90
17423;DHT22;8829;47.932;7.810;2023-04-15T13:21:53;14.10;99.90
17423;DHT22;8829;47.932;7.810;2023-04-15T13:24:20;13.90;99.90
17423;DHT22;8829;47.932;7.810;2023-04-15T13:26:47;13.90;99.90
17423;DHT22;8829;47.932;7.810;2023-04-15T13:29:13;14.00;99.90
17423;DHT22;8829;47.932;7.810;2023-04-15T13:31:40;14.00;99.90
17423;DHT22;8829;47.932;7.810;2023-04-15T13:34:08;13.90;99.90
17423;DHT22;8829;47.932;7.810;2023-04-15T13:36:35;13.90;99.90
17423;DHT22;8829;47.932;7.810;2023-04-15T13:39:02;13.80;99.90
17423;DHT22;8829;47.932;7.810;2023-04-15T13:41:29;13.80;99.90
17423;DHT22;8829;47.932;7.810;2023-04-15T13:43:56;13.70;99.90
17423;DHT22;8829;47.932;7.810;2023-04-15T13:46:23;13.60;99.90
17423;DHT22;8829;47.932;7.810;2023-04-15T13:48:51;13.60;99.90
17423;DHT22;8829;47.932;7.810;2023-04-15T13:51:19;13.40;99.90
17423;DHT22;8829;47.932;7.810;2023-04-15T13:53:45;13.40;99.90
17423;DHT22;8829;47.932;7.810;2023-04-15T13:56:12;13.50;99.90
17423;DHT22;8829;47.932;7.810;2023-04-15T13:58:39;13.70;99.90
17423;DHT22;8829;47.932;7.810;2023-04-15T14:01:06;13.80;99.90
17423;DHT22;8829;47.932;7.810;2023-04-15T14:03:33;13.80;99.90
17423;DHT22;8829;47.932;7.810;2023-04-15T14:06:00;13.90;99.90
17423;DHT22;8829;47.932;7.810;2023-04-15T14:08:29;13.70;99.90
17423;DHT22;8829;47.932;7.810;2023-04-15T14:10:55;13.80;99.90
17423;DHT22;8829;47.932;7.810;2023-04-15T14:13:22;14.00;99.90
17423;DHT22;8829;47.932;7.810;2023-04-15T14:15:49;14.10;99.90
17423;DHT22;8829;47.932;7.810;2023-04-15T14:18:15;14.20;99.90
17423;DHT22;8829;47.932;7.810;2023-04-15T14:20:42;14.20;99.90
17423;DHT22;8829;47.932;7.810;2023-04-15T14:23:09;14.30;99.90
17423;DHT22;8829;47.932;7.810;2023-04-15T14:25:37;14.20;99.90
17423;DHT22;8829;47.932;7.810;2023-04-15T14:28:04;14.10;99.90
17423;DHT22;8829;47.932;7.810;2023-04-15T14:30:31;14.20;99.90
17423;DHT22;8829;47.932;7.810;2023-04-15T14:32:57;14.30;99.90
17423;DHT22;8829;47.932;7.810;2023-04-15T14:35:24;14.40;99.90
17423;DHT22;8829;47.932;7.810;2023-04-15T14:37:51;14.40;99.90
17423;DHT22;8829;47.932;7.810;2023-04-15T14:40:18;14.30;99.90
17423;DHT22;8829;47.932;7.810;2023-04-15T14:42:47;14.40;99.90
17423;DHT22;8829;47.932;7.810;2023-04-15T14:45:14;14.20;99.90
17423;DHT22;8829;47.932;7.810;2023-04-15T14:47:40;14.10;99.90
17423;DHT22;8829;47.932;7.810;2023-04-15T14:50:08;14.00;99.90
17423;DHT22;8829;47.932;7.810;2023-04-15T14:52:35;13.90;99.90
17423;DHT22;8829;47.932;7.810;2023-04-15T14:55:04;13.90;99.90
17423;DHT22;8829;47.932;7.810;2023-04-15T14:57:31;13.90;99.90
17423;DHT22;8829;47.932;7.810;2023-04-15T15:00:00;14.00;99.90
17423;DHT22;8829;47.932;7.810;2023-04-15T15:02:27;14.10;99.90
17423;DHT22;8829;47.932;7.810;2023-04-15T15:04:54;14.10;99.90
17423;DHT22;8829;47.932;7.810;2023-04-15T15:07:21;14.00;99.90
17423;DHT22;8829;47.932;7.810;2023-04-15T15:09:48;14.00;99.90
17423;DHT22;8829;47.932;7.810;2023-04-15T15:12:15;13.90;99.90
17423;DHT22;8829;47.932;7.810;2023-04-15T15:14:41;13.90;99.90
17423;DHT22;8829;47.932;7.810;2023-04-15T15:17:09;13.60;99.90
17423;DHT22;8829;47.932;7.810;2023-04-15T15:19:36;13.60;99.90
17423;DHT22;8829;47.932;7.810;2023-04-15T15:22:03;13.70;99.90
17423;DHT22;8829;47.932;7.810;2023-04-15T15:24:30;13.70;99.90
17423;DHT22;8829;47.932;7.810;2023-04-15T15:26:57;13.80;99.90
17423;DHT22;8829;47.932;7.810;2023-04-15T15:29:23;13.90;99.90
17423;DHT22;8829;47.932;7.810;2023-04-15T15:31:50;14.00;99.90
17423;DHT22;8829;47.932;7.810;2023-04-15T15:34:18;13.90;99.90
17423;DHT22;8829;47.932;7.810;2023-04-15T15:36:45;14.00;99.90
17423;DHT22;8829;47.932;7.810;2023-04-15T15:39:11;14.00;99.90
17423;DHT22;8829;47.932;7.810;2023-04-15T15:41:38;14.00;99.90
17423;DHT22;8829;47.932;7.810;2023-04-15T15:44:04;14.00;99.90
17423;DHT22;8829;47.932;7.810;2023-04-15T15:46:31;14.00;99.90
17423;DHT22;8829;47.932;7.810;2023-04-15T15:48:58;13.90;99.90
17423;DHT22;8829;47.932;7.810;2023-04-15T15:51:26;13.80;99.90
17423;DHT22;8829;47.932;7.810;2023-04-15T15:53:53;13.80;99.90
17423;DHT22;8829;47.932;7.810;2023-04-15T15:56:20;13.70;99.90
17423;DHT22;8829;47.932;7.810;2023-04-15T15:58:46;13.80;99.90